Time;durP1;ratioP1;P1;durP2;ratioP2;P2;SDS_P1;SDS_P2;PMS_P1;PMS_P2;Temp;Humidity;BMP_temperature;BMP_pressure;BME280_temperature;BME280_humidity;BME280_pressure;Samples;Min_cycle;Max_cycle;Signal;HPM_P1;HPM_P2
2021/05/08 00:02:24;;;;;;;12.15;2.58;;;2.30;79.40;;;;;;4973569;28;20038;-76
2021/05/08 00:04:49;;;;;;;3.20;2.67;;;2.20;80.60;;;;;;4984528;28;20026;-74
2021/05/08 00:07:15;;;;;;;2.95;2.53;;;2.20;80.50;;;;;;4983520;28;20030;-76
2021/05/08 00:09:42;;;;;;;2.58;1.88;;;2.20;80.90;;;;;;4985562;28;20068;-76
2021/05/08 00:12:08;;;;;;;2.15;2.05;;;2.20;82.20;;;;;;4977598;28;20026;-77
2021/05/08 00:14:34;;;;;;;3.75;2.42;;;2.30;81.30;;;;;;4998948;28;20026;-77
2021/05/08 00:16:59;;;;;;;3.80;2.60;;;2.30;81.30;;;;;;4984162;28;20099;-74
2021/05/08 00:19:25;;;;;;;2.88;2.58;;;2.30;81.00;;;;;;4985315;28;20030;-76
2021/05/08 00:21:51;;;;;;;3.08;2.00;;;2.30;81.10;;;;;;4984142;28;20031;-76
2021/05/08 00:24:17;;;;;;;3.03;2.42;;;2.40;81.00;;;;;;4988841;28;20052;-76
2021/05/08 00:26:43;;;;;;;2.15;1.98;;;2.30;80.60;;;;;;4985754;28;20771;-74
2021/05/08 00:29:09;;;;;;;2.65;2.28;;;2.30;80.50;;;;;;4984277;28;20049;-76
2021/05/08 00:31:34;;;;;;;9.48;2.38;;;2.30;80.10;;;;;;4979114;28;20038;-75
2021/05/08 00:34:00;;;;;;;2.25;2.05;;;2.30;80.50;;;;;;4982048;28;20026;-76
2021/05/08 00:36:26;;;;;;;2.40;2.20;;;2.30;80.60;;;;;;4984335;28;20034;-75
2021/05/08 00:38:51;;;;;;;2.65;2.20;;;2.30;81.10;;;;;;4989121;28;20041;-76
2021/05/08 00:41:17;;;;;;;3.17;2.67;;;2.20;81.70;;;;;;4984376;28;20027;-75
2021/05/08 00:43:43;;;;;;;4.43;2.80;;;2.20;81.60;;;;;;4994455;28;20562;-76
2021/05/08 00:46:09;;;;;;;2.90;2.63;;;2.20;81.10;;;;;;4988137;28;20508;-76
2021/05/08 00:48:35;;;;;;;3.33;2.70;;;2.20;81.00;;;;;;4982777;28;20461;-77
2021/05/08 00:51:01;;;;;;;2.30;2.10;;;2.10;81.10;;;;;;4990482;28;20040;-76
2021/05/08 00:53:27;;;;;;;6.65;2.88;;;2.10;81.10;;;;;;4984831;28;20030;-77
2021/05/08 00:55:53;;;;;;;3.40;2.60;;;2.00;82.10;;;;;;4983136;28;20027;-77
2021/05/08 00:58:19;;;;;;;3.15;2.53;;;1.90;81.80;;;;;;4980160;28;20035;-76
2021/05/08 01:00:48;;;;;;;4.00;3.03;;;1.90;81.50;;;;;;4986425;28;20086;-76
2021/05/08 01:03:13;;;;;;;4.63;3.13;;;1.90;82.20;;;;;;4976958;28;20019;-76
2021/05/08 01:05:39;;;;;;;2.70;2.50;;;1.80;82.90;;;;;;4984700;28;20077;-76
2021/05/08 01:08:05;;;;;;;4.43;2.60;;;1.80;82.70;;;;;;4982032;28;20030;-76
2021/05/08 01:10:33;;;;;;;4.35;3.30;;;1.80;82.10;;;;;;4983603;28;20101;-76
2021/05/08 01:13:00;;;;;;;3.50;3.20;;;1.80;81.60;;;;;;4977284;28;20118;-77
2021/05/08 01:15:26;;;;;;;2.70;2.50;;;1.80;81.80;;;;;;4984789;28;20041;-74
2021/05/08 01:17:53;;;;;;;4.20;2.85;;;1.70;82.60;;;;;;4992910;28;20026;-77
2021/05/08 01:20:20;;;;;;;2.55;2.28;;;1.70;83.10;;;;;;4988140;28;20564;-76
2021/05/08 01:25:57;;;;;;;3.15;2.85;;;1.80;82.30;;;;;;5797236;23;20062;-74
2021/05/08 01:30:58;;;;;;;3.35;3.03;;;1.90;81.40;;;;;;5122387;23;20050;-77
2021/05/08 01:33:23;;;;;;;4.28;2.80;;;2.00;81.30;;;;;;5004746;28;20037;-77
2021/05/08 01:35:49;;;;;;;4.63;2.75;;;2.00;81.30;;;;;;5004531;28;20038;-77
2021/05/08 01:38:14;;;;;;;3.47;2.92;;;1.90;81.20;;;;;;5007101;28;20037;-77
2021/05/08 01:40:41;;;;;;;2.50;2.30;;;2.00;81.30;;;;;;5021788;28;20030;-76
2021/05/08 01:43:07;;;;;;;3.35;2.90;;;1.90;81.60;;;;;;5029619;28;20087;-77
2021/05/08 01:45:33;;;;;;;3.92;3.05;;;1.90;81.50;;;;;;5028282;28;20461;-77
2021/05/08 01:48:01;;;;;;;5.90;3.20;;;1.80;81.20;;;;;;5027659;28;20116;-77
2021/05/08 01:50:27;;;;;;;3.60;3.30;;;1.90;81.20;;;;;;5026459;28;20029;-76
2021/05/08 01:52:53;;;;;;;3.92;2.95;;;1.90;81.80;;;;;;5020825;28;20280;-77
2021/05/08 01:55:21;;;;;;;3.22;2.47;;;1.80;81.80;;;;;;5025054;28;20400;-77
2021/05/08 01:57:52;;;;;;;4.15;2.28;;;1.70;79.60;;;;;;5029808;28;20021;-77
2021/05/08 02:00:28;;;;;;;2.45;2.25;;;1.70;79.20;;;;;;5019584;28;20029;-77
2021/05/08 02:02:55;;;;;;;2.97;2.30;;;1.70;79.70;;;;;;5022763;28;20030;-77
2021/05/08 02:05:22;;;;;;;4.03;2.92;;;1.70;80.50;;;;;;5028570;28;20021;-76
2021/05/08 02:07:48;;;;;;;3.67;2.20;;;1.70;79.50;;;;;;5027541;28;20132;-77
2021/05/08 02:10:15;;;;;;;3.65;2.85;;;1.70;79.40;;;;;;5019917;28;20112;-76
2021/05/08 02:12:41;;;;;;;2.35;2.15;;;1.60;79.50;;;;;;5026348;28;20048;-77
2021/05/08 02:15:09;;;;;;;2.40;2.20;;;1.60;79.80;;;;;;5023134;28;20032;-77
2021/05/08 02:17:35;;;;;;;5.45;2.90;;;1.60;80.40;;;;;;5025263;28;20061;-77
2021/05/08 02:20:01;;;;;;;3.40;3.05;;;1.60;81.00;;;;;;5025374;28;20491;-77
2021/05/08 02:22:27;;;;;;;3.38;2.80;;;1.60;80.30;;;;;;5028618;28;20021;-77
2021/05/08 02:24:52;;;;;;;2.50;2.30;;;1.60;80.40;;;;;;5015878;28;20510;-77
2021/05/08 02:27:19;;;;;;;2.42;2.22;;;1.60;80.60;;;;;;5025304;28;20095;-77
2021/05/08 02:29:44;;;;;;;3.05;2.75;;;1.60;80.40;;;;;;5018820;28;20079;-77
2021/05/08 02:32:10;;;;;;;3.63;3.33;;;1.60;80.60;;;;;;5022603;28;20037;-78
2021/05/08 02:34:35;;;;;;;3.40;3.00;;;1.50;80.70;;;;;;5023804;28;20074;-77
2021/05/08 02:37:01;;;;;;;5.15;2.63;;;1.60;80.90;;;;;;5022132;28;20022;-78
2021/05/08 02:39:27;;;;;;;4.38;3.05;;;1.60;80.90;;;;;;5022627;28;20079;-77
2021/05/08 02:41:53;;;;;;;2.78;2.53;;;1.60;80.70;;;;;;5027557;28;20028;-77
2021/05/08 02:44:19;;;;;;;5.35;3.40;;;1.50;80.30;;;;;;5022421;28;20026;-77
2021/05/08 02:46:45;;;;;;;3.90;3.50;;;1.50;80.40;;;;;;5026575;28;20391;-77
2021/05/08 02:49:11;;;;;;;5.75;3.50;;;1.50;81.00;;;;;;5021061;28;21798;-77
2021/05/08 02:51:36;;;;;;;3.17;2.83;;;1.50;80.70;;;;;;5032868;28;20083;-77
2021/05/08 02:54:02;;;;;;;4.50;2.92;;;1.40;80.60;;;;;;5043282;28;20025;-77
2021/05/08 02:56:28;;;;;;;1.13;1.13;;;1.40;80.60;;;;;;5015128;28;20427;-77
2021/05/08 02:58:53;;;;;;;2.38;1.90;;;1.40;80.20;;;;;;5016191;28;20036;-77
2021/05/08 03:01:19;;;;;;;1.75;1.65;;;1.40;80.30;;;;;;5013213;28;20049;-77
2021/05/08 03:03:44;;;;;;;2.42;2.20;;;1.40;80.30;;;;;;5021056;28;20112;-78
2021/05/08 03:06:10;;;;;;;1.50;1.45;;;1.30;81.50;;;;;;5023753;28;20636;-77
2021/05/08 03:08:35;;;;;;;1.20;1.20;;;1.30;81.00;;;;;;5022773;28;20032;-78
2021/05/08 03:11:01;;;;;;;1.33;1.33;;;1.30;80.50;;;;;;5021769;28;20029;-78
2021/05/08 03:13:27;;;;;;;1.40;1.40;;;1.30;80.80;;;;;;5021285;28;20526;-77
2021/05/08 03:15:52;;;;;;;1.30;1.30;;;1.30;80.70;;;;;;5026821;28;20104;-77
2021/05/08 03:18:18;;;;;;;2.33;2.08;;;1.30;80.60;;;;;;5018545;28;20033;-77
2021/05/08 03:20:43;;;;;;;1.75;1.60;;;1.20;80.70;;;;;;5028978;28;20025;-77
2021/05/08 03:23:09;;;;;;;2.90;2.70;;;1.30;81.20;;;;;;5029117;28;20025;-77
2021/05/08 03:25:35;;;;;;;3.42;2.65;;;1.10;81.30;;;;;;5024054;28;20025;-77
2021/05/08 03:28:00;;;;;;;4.65;3.17;;;1.10;81.30;;;;;;5012135;28;20042;-75
2021/05/08 03:30:26;;;;;;;2.80;2.50;;;1.10;81.90;;;;;;5019679;28;20439;-76
2021/05/08 03:32:51;;;;;;;1.70;1.60;;;1.10;81.70;;;;;;5021675;28;20049;-77
2021/05/08 03:35:17;;;;;;;1.20;1.13;;;1.10;81.00;;;;;;5019592;28;20104;-77
2021/05/08 03:37:43;;;;;;;5.60;3.53;;;1.10;80.90;;;;;;5018505;28;20033;-77
2021/05/08 03:40:09;;;;;;;9.05;3.65;;;1.00;82.60;;;;;;5024085;28;20048;-76
2021/05/08 03:42:34;;;;;;;3.35;3.08;;;1.00;83.50;;;;;;5024012;28;20029;-77
2021/05/08 03:45:00;;;;;;;5.85;3.08;;;0.90;83.80;;;;;;5021412;28;20078;-77
2021/05/08 03:47:26;;;;;;;2.60;2.40;;;0.90;83.40;;;;;;5026790;28;20026;-76
2021/05/08 03:49:51;;;;;;;2.88;2.58;;;1.00;82.30;;;;;;5024522;28;20089;-75
2021/05/08 03:52:17;;;;;;;2.65;1.75;;;1.00;81.40;;;;;;5017194;28;20033;-77
2021/05/08 03:54:42;;;;;;;2.85;2.20;;;1.00;81.10;;;;;;5020658;28;20527;-77
2021/05/08 03:57:08;;;;;;;2.03;1.25;;;1.00;80.40;;;;;;5023412;28;20030;-77
2021/05/08 03:59:34;;;;;;;1.60;1.50;;;0.90;80.20;;;;;;5020104;28;20029;-77
2021/05/08 04:01:59;;;;;;;1.98;1.83;;;0.90;80.10;;;;;;5023547;28;20049;-78
2021/05/08 04:04:25;;;;;;;1.85;1.40;;;0.90;80.20;;;;;;5021873;28;20102;-77
2021/05/08 04:06:51;;;;;;;3.58;2.95;;;0.90;81.10;;;;;;5031141;28;20098;-77
2021/05/08 04:09:16;;;;;;;4.78;2.67;;;0.90;81.90;;;;;;5023383;28;20036;-77
2021/05/08 04:11:43;;;;;;;4.45;2.72;;;0.90;82.10;;;;;;5023045;28;20593;-77
2021/05/08 04:14:08;;;;;;;3.45;3.00;;;0.90;81.80;;;;;;5024834;28;20025;-76
2021/05/08 04:16:34;;;;;;;3.17;2.38;;;0.90;82.80;;;;;;5028644;28;20502;-77
2021/05/08 04:19:01;;;;;;;2.25;1.85;;;1.00;82.00;;;;;;5030569;28;20595;-77
2021/05/08 04:21:27;;;;;;;1.20;1.10;;;1.00;81.90;;;;;;5026769;28;20021;-78
2021/05/08 04:23:53;;;;;;;1.05;1.05;;;1.00;81.20;;;;;;5028660;28;20085;-78
2021/05/08 04:26:18;;;;;;;1.17;1.17;;;0.90;81.10;;;;;;5023117;28;20735;-77
2021/05/08 04:28:44;;;;;;;1.05;1.05;;;1.00;81.30;;;;;;5027718;28;20439;-77
2021/05/08 04:31:10;;;;;;;1.55;1.45;;;1.00;81.70;;;;;;5025154;28;20566;-77
2021/05/08 04:33:35;;;;;;;7.70;2.17;;;1.00;81.70;;;;;;5019632;28;20037;-77
2021/05/08 04:36:01;;;;;;;2.20;1.33;;;1.00;82.10;;;;;;5025215;28;20109;-77
2021/05/08 04:38:26;;;;;;;2.05;1.95;;;1.00;82.30;;;;;;5024620;28;20026;-77
2021/05/08 04:40:56;;;;;;;1.95;1.60;;;1.10;82.30;;;;;;5032329;28;20064;-77
2021/05/08 04:43:22;;;;;;;1.70;1.60;;;1.00;82.20;;;;;;5028826;28;20440;-77
2021/05/08 04:45:48;;;;;;;2.40;2.15;;;1.00;82.70;;;;;;5028806;28;20034;-78
2021/05/08 04:48:24;;;;;;;2.40;2.20;;;1.00;83.10;;;;;;5030408;28;20466;-77
2021/05/08 04:50:49;;;;;;;2.60;1.95;;;1.00;83.30;;;;;;5031621;28;20487;-78
2021/05/08 04:53:15;;;;;;;2.47;2.20;;;1.10;83.20;;;;;;5027399;28;20037;-77
2021/05/08 04:55:41;;;;;;;2.10;2.00;;;1.20;83.40;;;;;;5023122;28;20013;-78
2021/05/08 04:58:07;;;;;;;2.65;2.45;;;1.30;83.90;;;;;;5022399;28;20022;-77
2021/05/08 05:00:33;;;;;;;2.13;2.00;;;1.40;84.20;;;;;;5022232;28;20026;-77
2021/05/08 05:02:58;;;;;;;2.20;2.03;;;1.50;84.80;;;;;;5024680;28;20088;-77
2021/05/08 05:05:24;;;;;;;2.40;2.20;;;1.50;84.60;;;;;;5017310;28;20124;-77
2021/05/08 05:07:50;;;;;;;2.60;2.40;;;1.70;85.20;;;;;;5024800;28;20052;-77
2021/05/08 05:10:15;;;;;;;3.30;2.17;;;1.70;85.10;;;;;;5030237;28;20026;-77
2021/05/08 05:12:41;;;;;;;3.47;2.25;;;1.80;84.90;;;;;;5020092;28;20104;-77
2021/05/08 05:15:08;;;;;;;2.65;2.45;;;1.90;84.90;;;;;;5019862;28;20368;-77
2021/05/08 05:17:34;;;;;;;4.03;3.15;;;1.90;84.90;;;;;;5020310;28;20029;-77
2021/05/08 05:20:00;;;;;;;3.78;2.80;;;1.90;84.70;;;;;;5023719;28;20036;-77
2021/05/08 05:22:26;;;;;;;4.32;3.05;;;2.00;85.10;;;;;;5026807;28;20028;-77
2021/05/08 05:24:52;;;;;;;3.58;2.80;;;2.10;85.30;;;;;;5031248;28;20025;-77
2021/05/08 05:27:17;;;;;;;4.35;3.95;;;2.10;85.10;;;;;;5026105;28;20648;-76
2021/05/08 05:29:43;;;;;;;5.72;3.17;;;2.20;84.90;;;;;;5025282;28;20033;-77
2021/05/08 05:32:09;;;;;;;5.80;3.55;;;2.30;85.60;;;;;;5025941;28;20037;-76
2021/05/08 05:34:34;;;;;;;4.72;3.67;;;2.30;85.50;;;;;;5027879;28;20021;-77
2021/05/08 05:37:00;;;;;;;5.47;3.25;;;2.40;85.00;;;;;;5032201;28;20049;-77
2021/05/08 05:39:26;;;;;;;3.92;3.22;;;2.50;85.40;;;;;;5025012;28;20056;-77
2021/05/08 05:41:51;;;;;;;3.80;3.40;;;2.60;85.80;;;;;;5027869;28;20025;-77
2021/05/08 05:44:17;;;;;;;4.82;3.35;;;2.60;85.90;;;;;;5024196;28;20617;-77
2021/05/08 05:46:43;;;;;;;4.55;3.92;;;2.70;85.50;;;;;;5024476;28;20036;-77
2021/05/08 05:49:08;;;;;;;5.90;3.70;;;2.80;85.50;;;;;;5021115;28;20167;-77
2021/05/08 05:51:34;;;;;;;4.72;3.97;;;2.90;86.00;;;;;;5023613;28;20112;-77
2021/05/08 05:54:00;;;;;;;6.97;4.35;;;3.00;85.70;;;;;;5020749;28;20047;-77
2021/05/08 05:56:27;;;;;;;5.55;4.28;;;3.10;85.60;;;;;;5025475;28;20033;-77
2021/05/08 05:58:53;;;;;;;4.85;3.70;;;3.10;86.40;;;;;;5020020;28;20036;-77
2021/05/08 06:01:19;;;;;;;4.28;3.55;;;3.20;86.40;;;;;;5027372;28;20041;-77
2021/05/08 06:03:45;;;;;;;6.43;3.83;;;3.40;86.40;;;;;;5025947;28;20132;-77
2021/05/08 06:06:11;;;;;;;7.18;4.05;;;3.50;87.20;;;;;;5026535;28;20033;-77
2021/05/08 06:08:37;;;;;;;5.32;4.00;;;3.60;86.80;;;;;;5017912;28;20116;-77
2021/05/08 06:11:03;;;;;;;4.85;4.28;;;3.70;87.60;;;;;;5022359;28;20021;-76
2021/05/08 06:13:32;;;;;;;6.38;4.18;;;3.90;88.30;;;;;;5030038;28;20039;-77
2021/05/08 06:15:58;;;;;;;5.68;4.50;;;4.00;88.40;;;;;;5026294;28;20022;-76
2021/05/08 06:18:24;;;;;;;7.15;4.32;;;4.20;88.40;;;;;;5020694;28;20095;-76
2021/05/08 06:20:49;;;;;;;6.32;4.30;;;4.20;88.10;;;;;;5028056;28;20021;-77
2021/05/08 06:23:15;;;;;;;5.32;4.35;;;4.40;87.70;;;;;;5023082;28;20199;-77
2021/05/08 06:25:41;;;;;;;4.88;3.90;;;4.60;87.10;;;;;;5020577;28;20057;-77
2021/05/08 06:28:06;;;;;;;6.65;4.40;;;4.70;87.40;;;;;;5020451;28;20029;-76
2021/05/08 06:30:32;;;;;;;5.75;4.05;;;4.90;86.70;;;;;;5013044;28;20057;-76
2021/05/08 06:32:58;;;;;;;6.90;3.75;;;5.00;86.50;;;;;;5021599;28;20039;-76
2021/05/08 06:35:23;;;;;;;5.95;4.32;;;5.30;86.50;;;;;;5028648;28;20116;-77
2021/05/08 06:37:51;;;;;;;5.68;4.35;;;5.40;86.10;;;;;;5021345;28;20400;-77
2021/05/08 06:40:17;;;;;;;4.07;3.65;;;5.70;85.70;;;;;;5016789;28;20087;-76
2021/05/08 06:42:43;;;;;;;4.53;3.60;;;5.90;85.40;;;;;;5017058;28;20025;-76
2021/05/08 06:45:10;;;;;;;4.10;3.67;;;6.00;83.80;;;;;;5021172;28;20053;-77
2021/05/08 06:47:36;;;;;;;4.55;3.55;;;6.20;84.00;;;;;;5015935;28;20120;-76
2021/05/08 06:50:02;;;;;;;5.57;3.83;;;6.30;84.50;;;;;;5024944;28;20112;-76
2021/05/08 06:52:27;;;;;;;5.10;3.63;;;6.40;83.60;;;;;;5028502;28;20384;-76
2021/05/08 06:54:53;;;;;;;4.10;3.60;;;6.60;82.90;;;;;;5013351;28;20025;-76
2021/05/08 06:57:18;;;;;;;4.25;3.50;;;6.70;84.20;;;;;;5015913;28;20113;-77
2021/05/08 06:59:44;;;;;;;4.38;3.53;;;6.80;84.80;;;;;;5017310;28;20026;-77
2021/05/08 07:02:10;;;;;;;5.80;3.88;;;7.00;84.10;;;;;;5010147;28;20092;-76
2021/05/08 07:04:35;;;;;;;4.22;3.13;;;7.30;82.20;;;;;;5015586;28;20021;-76
2021/05/08 07:07:01;;;;;;;6.00;3.58;;;7.30;80.60;;;;;;5020448;28;20391;-76
2021/05/08 07:09:27;;;;;;;2.63;2.42;;;7.50;79.10;;;;;;5016729;28;20035;-77
2021/05/08 07:11:53;;;;;;;4.05;2.22;;;7.80;74.40;;;;;;5025619;28;20030;-76
2021/05/08 07:14:18;;;;;;;3.78;2.42;;;7.90;74.20;;;;;;5023556;28;20037;-77
2021/05/08 07:16:44;;;;;;;3.30;2.63;;;8.00;72.60;;;;;;5023855;28;20056;-76
2021/05/08 07:19:10;;;;;;;2.90;2.63;;;8.10;73.80;;;;;;5020689;28;20033;-76
2021/05/08 07:21:37;;;;;;;2.45;2.13;;;8.20;72.80;;;;;;5024622;28;20567;-76
2021/05/08 07:24:04;;;;;;;4.18;2.13;;;8.40;69.60;;;;;;5018860;28;21911;-76
2021/05/08 07:26:29;;;;;;;2.53;2.00;;;8.70;68.50;;;;;;5026788;28;20074;-75
2021/05/08 07:28:55;;;;;;;2.92;2.00;;;8.80;67.40;;;;;;5021078;28;20037;-75
2021/05/08 07:31:20;;;;;;;5.70;2.28;;;8.90;66.50;;;;;;5026633;28;20034;-76
2021/05/08 07:33:46;;;;;;;2.28;2.00;;;9.10;64.10;;;;;;5024322;28;20068;-76
2021/05/08 07:36:12;;;;;;;2.08;1.98;;;9.10;64.30;;;;;;5022521;28;20119;-75
2021/05/08 07:38:37;;;;;;;2.13;1.90;;;9.10;65.70;;;;;;5019109;28;20113;-76
2021/05/08 07:41:03;;;;;;;2.47;2.10;;;9.30;65.80;;;;;;5015995;28;20553;-76
2021/05/08 07:43:28;;;;;;;2.83;2.20;;;9.40;65.70;;;;;;5015611;28;20029;-75
2021/05/08 07:45:54;;;;;;;2.25;1.92;;;9.60;65.10;;;;;;5017902;28;20525;-76
2021/05/08 07:48:20;;;;;;;2.53;2.33;;;9.60;64.50;;;;;;5017865;28;20034;-75
2021/05/08 07:50:46;;;;;;;3.03;2.60;;;9.60;63.90;;;;;;5017911;28;20050;-75
2021/05/08 07:53:11;;;;;;;2.55;2.08;;;9.60;63.10;;;;;;5022194;28;20555;-75
2021/05/08 07:55:37;;;;;;;2.45;2.20;;;9.60;63.70;;;;;;5019055;28;20448;-75
2021/05/08 07:58:05;;;;;;;3.55;2.22;;;9.70;66.00;;;;;;5020537;28;20035;-76
2021/05/08 08:00:31;;;;;;;2.87;2.13;;;9.90;65.50;;;;;;5016244;28;20036;-75
2021/05/08 08:02:57;;;;;;;2.70;1.90;;;10.00;65.90;;;;;;5017349;28;20021;-75
2021/05/08 08:05:22;;;;;;;3.80;1.95;;;10.10;64.50;;;;;;5020156;28;20078;-76
2021/05/08 08:07:48;;;;;;;2.92;2.10;;;10.20;63.70;;;;;;5023547;28;20029;-76
2021/05/08 08:10:14;;;;;;;2.42;2.13;;;10.40;62.30;;;;;;5021449;28;20112;-76
2021/05/08 08:12:40;;;;;;;2.35;2.15;;;10.50;62.50;;;;;;5017155;28;20075;-75
2021/05/08 08:15:08;;;;;;;3.30;2.30;;;10.70;63.10;;;;;;5023673;28;20052;-76
2021/05/08 08:17:35;;;;;;;3.77;2.07;;;10.80;62.80;;;;;;5020602;28;20030;-76
2021/05/08 08:20:05;;;;;;;2.60;2.00;;;10.80;62.80;;;;;;5021121;28;20044;-76
2021/05/08 08:22:31;;;;;;;4.13;2.20;;;11.00;61.60;;;;;;5019164;28;20096;-75
2021/05/08 08:24:58;;;;;;;4.80;2.70;;;11.10;62.10;;;;;;5022809;28;20033;-75
2021/05/08 08:27:23;;;;;;;2.50;1.90;;;11.20;61.10;;;;;;5020968;28;20025;-77
2021/05/08 08:29:49;;;;;;;2.88;2.00;;;11.40;63.30;;;;;;5019625;28;21779;-76
2021/05/08 08:32:14;;;;;;;2.80;2.15;;;11.50;63.80;;;;;;5025001;28;20104;-75
2021/05/08 08:34:41;;;;;;;5.47;1.98;;;11.60;57.00;;;;;;5028749;28;20104;-75
2021/05/08 08:37:07;;;;;;;3.05;2.35;;;11.70;60.60;;;;;;5027368;28;20030;-76
2021/05/08 08:39:33;;;;;;;2.80;2.05;;;11.80;60.30;;;;;;5026636;28;20402;-75
2021/05/08 08:41:59;;;;;;;2.38;2.00;;;11.70;58.50;;;;;;5023996;28;20014;-75
2021/05/08 08:44:25;;;;;;;2.83;1.80;;;11.80;57.50;;;;;;5027761;28;20461;-77
2021/05/08 08:46:51;;;;;;;2.03;1.80;;;12.00;57.40;;;;;;5026729;28;20040;-76
2021/05/08 08:49:18;;;;;;;2.30;1.75;;;12.10;55.20;;;;;;5023076;28;20029;-75
2021/05/08 08:51:44;;;;;;;3.40;1.60;;;12.10;53.00;;;;;;5024421;28;20087;-76
2021/05/08 08:54:12;;;;;;;2.47;1.60;;;12.20;53.70;;;;;;5024325;28;20026;-76
2021/05/08 08:56:43;;;;;;;1.73;1.27;;;12.20;54.50;;;;;;5024533;28;20017;-76
2021/05/08 08:59:43;;;;;;;2.13;1.55;;;12.30;50.60;;;;;;5025002;28;20108;-76
2021/05/08 09:02:02;;;;;;;1.75;1.65;;;12.40;53.60;;;;;;5022519;28;20037;-76
2021/05/08 09:04:28;;;;;;;2.13;1.55;;;12.50;51.30;;;;;;5026928;28;20109;-76
2021/05/08 09:06:54;;;;;;;1.95;1.85;;;12.60;52.80;;;;;;5022451;28;20136;-76
2021/05/08 09:09:20;;;;;;;2.40;2.00;;;12.60;53.40;;;;;;5025884;28;20128;-76
2021/05/08 09:11:54;;;;;;;2.30;2.10;;;12.70;54.40;;;;;;5021541;28;20064;-75
2021/05/08 09:14:27;;;;;;;1.90;1.70;;;12.70;52.30;;;;;;5024224;28;20037;-76
2021/05/08 09:17:14;;;;;;;1.75;1.60;;;12.70;53.60;;;;;;5024945;28;20025;-75
2021/05/08 09:19:42;;;;;;;1.90;1.63;;;12.80;51.00;;;;;;5023345;28;20061;-76
2021/05/08 09:22:28;;;;;;;2.65;1.60;;;12.80;55.60;;;;;;5026059;28;20112;-76
2021/05/08 09:25:11;;;;;;;1.80;1.65;;;13.00;53.00;;;;;;5027545;28;20025;-76
2021/05/08 09:27:39;;;;;;;2.42;1.75;;;13.00;53.80;;;;;;5024148;28;20047;-76
2021/05/08 09:30:15;;;;;;;2.05;1.63;;;12.90;56.10;;;;;;5022925;28;20028;-77
2021/05/08 09:32:50;;;;;;;1.63;1.52;;;13.10;56.20;;;;;;5026186;28;20033;-76
2021/05/08 09:35:24;;;;;;;3.15;1.88;;;13.20;55.20;;;;;;5025848;28;20438;-77
2021/05/08 09:37:51;;;;;;;1.50;1.40;;;13.40;52.90;;;;;;5027548;28;20049;-77
2021/05/08 09:40:25;;;;;;;2.35;1.67;;;13.40;51.80;;;;;;5018297;28;20105;-76
2021/05/08 09:42:56;;;;;;;2.03;1.50;;;13.30;53.10;;;;;;5017211;28;20091;-76
2021/05/08 09:45:24;;;;;;;1.60;1.50;;;13.40;52.70;;;;;;5014082;28;20117;-77
2021/05/08 09:47:51;;;;;;;2.20;1.50;;;13.50;51.80;;;;;;5013929;28;20053;-77
2021/05/08 09:50:25;;;;;;;2.20;1.70;;;13.50;50.70;;;;;;5016201;28;20026;-76
2021/05/08 09:52:55;;;;;;;4.15;1.90;;;13.50;52.50;;;;;;5015490;28;20059;-76
2021/05/08 09:55:24;;;;;;;2.72;1.60;;;13.50;53.30;;;;;;5020267;28;20087;-77
2021/05/08 09:58:05;;;;;;;1.85;1.40;;;13.70;53.30;;;;;;5021841;28;20353;-76
2021/05/08 10:00:38;;;;;;;1.80;1.70;;;13.90;51.70;;;;;;5019461;28;20037;-77
2021/05/08 10:03:13;;;;;;;3.47;1.60;;;13.90;49.00;;;;;;5022697;28;20017;-77
2021/05/08 10:06:06;;;;;;;2.22;1.50;;;13.70;50.00;;;;;;5022028;28;20029;-77
2021/05/08 10:08:32;;;;;;;2.28;1.58;;;13.70;51.00;;;;;;5019316;28;20048;-77
2021/05/08 10:10:58;;;;;;;2.47;1.60;;;13.80;50.20;;;;;;5015770;28;20092;-77
2021/05/08 10:13:27;;;;;;;2.88;1.35;;;13.90;49.00;;;;;;5017526;28;20029;-77
2021/05/08 10:15:53;;;;;;;;;;;13.90;51.30;;;;;;5022215;28;20035;-76
2021/05/08 10:18:20;;;;;;;1.50;1.40;;;13.90;50.00;;;;;;5017470;28;19917;-76
2021/05/08 10:20:47;;;;;;;1.40;1.23;;;14.00;49.40;;;;;;5021540;28;20119;-76
2021/05/08 10:23:14;;;;;;;1.35;1.25;;;13.90;48.90;;;;;;5022982;28;20056;-76
2021/05/08 10:25:41;;;;;;;1.40;1.30;;;14.00;50.80;;;;;;5022018;28;20049;-76
2021/05/08 10:28:08;;;;;;;2.58;1.40;;;14.00;49.60;;;;;;5019321;28;20136;-76
2021/05/08 10:30:36;;;;;;;1.52;1.42;;;14.00;48.10;;;;;;5018791;28;20126;-77
2021/05/08 10:33:13;;;;;;;1.60;1.50;;;14.10;48.50;;;;;;5021459;28;20033;-76
2021/05/08 10:35:52;;;;;;;1.90;1.38;;;14.00;48.50;;;;;;5024339;28;20488;-77
2021/05/08 10:38:34;;;;;;;1.33;1.23;;;14.10;48.40;;;;;;5022778;28;20101;-76
2021/05/08 10:41:11;;;;;;;1.52;1.42;;;14.20;49.40;;;;;;5020809;28;20026;-76
2021/05/08 10:43:56;;;;;;;2.13;1.60;;;14.20;48.10;;;;;;5020988;28;20029;-77
2021/05/08 10:46:24;;;;;;;2.42;1.50;;;14.30;49.80;;;;;;5016337;28;20055;-76
2021/05/08 10:49:12;;;;;;;1.95;1.67;;;14.40;52.00;;;;;;5015704;28;20032;-76
2021/05/08 10:51:57;;;;;;;;;;;14.50;48.50;;;;;;5012393;28;20029;-76
2021/05/08 10:54:43;;;;;;;1.23;1.10;;;14.50;48.50;;;;;;5013469;28;19921;-77
2021/05/08 10:57:26;;;;;;;1.58;1.42;;;14.60;48.50;;;;;;5008529;28;20116;-77
2021/05/08 11:00:07;;;;;;;1.63;1.33;;;14.50;53.30;;;;;;5013330;28;20022;-76
2021/05/08 11:02:45;;;;;;;1.50;1.40;;;14.60;48.60;;;;;;5014674;28;20044;-77
2021/05/08 11:05:24;;;;;;;1.13;1.03;;;14.60;47.80;;;;;;5014360;28;20140;-77
2021/05/08 11:07:50;;;;;;;1.25;1.08;;;14.60;48.10;;;;;;5019073;28;20032;-76
2021/05/08 11:10:34;;;;;;;2.30;1.30;;;14.70;48.00;;;;;;5019003;28;20105;-77
2021/05/08 11:13:11;;;;;;;3.35;1.10;;;14.80;48.30;;;;;;5016738;28;20033;-77
2021/05/08 11:18:30;;;;;;;1.05;1.05;;;14.60;53.80;;;;;;5016385;28;20037;-77
2021/05/08 11:20:56;;;;;;;1.15;1.10;;;14.70;48.50;;;;;;5018369;28;20026;-77
2021/05/08 11:23:22;;;;;;;1.73;1.48;;;14.80;51.60;;;;;;5016750;28;20029;-76
2021/05/08 11:25:48;;;;;;;2.05;1.30;;;14.80;48.30;;;;;;5022935;28;20040;-77
2021/05/08 11:28:13;;;;;;;2.55;1.35;;;15.00;48.00;;;;;;5016885;28;20033;-77
2021/05/08 11:30:56;;;;;;;1.35;1.27;;;15.00;48.00;;;;;;5013555;28;20048;-76
2021/05/08 11:33:22;;;;;;;3.33;1.42;;;15.00;47.60;;;;;;5016303;28;20130;-77
2021/05/08 11:36:04;;;;;;;2.15;1.10;;;15.00;45.70;;;;;;5018447;28;20104;-76
2021/05/08 11:38:30;;;;;;;1.33;1.17;;;14.80;43.60;;;;;;5019632;28;20029;-76
2021/05/08 11:40:56;;;;;;;1.50;1.40;;;14.90;46.70;;;;;;5017633;28;20423;-77
2021/05/08 11:43:28;;;;;;;1.70;1.10;;;15.10;46.10;;;;;;5020779;28;20034;-77
2021/05/08 11:45:54;;;;;;;1.65;1.30;;;15.10;47.00;;;;;;5027395;28;20113;-77
2021/05/08 11:48:20;;;;;;;1.20;1.10;;;15.10;42.50;;;;;;5022601;28;20104;-77
2021/05/08 11:50:49;;;;;;;1.42;1.15;;;15.00;42.90;;;;;;5026953;28;20030;-76
2021/05/08 11:53:19;;;;;;;1.85;1.20;;;15.10;43.80;;;;;;5021339;28;20061;-77
2021/05/08 11:55:48;;;;;;;1.80;1.30;;;15.10;46.50;;;;;;5018454;28;20034;-77
2021/05/08 11:58:26;;;;;;;1.30;1.20;;;15.20;43.20;;;;;;5010128;28;20514;-76
2021/05/08 12:00:52;;;;;;;1.33;1.23;;;15.20;45.50;;;;;;5006074;28;20038;-77
2021/05/08 12:03:18;;;;;;;2.50;1.08;;;15.20;45.00;;;;;;5013502;28;20960;-76
2021/05/08 12:05:45;;;;;;;1.30;1.20;;;15.10;48.80;;;;;;5014160;28;20037;-76
2021/05/08 12:08:12;;;;;;;1.08;1.08;;;15.20;46.90;;;;;;5015511;28;20125;-77
2021/05/08 12:10:40;;;;;;;1.38;1.10;;;15.30;48.00;;;;;;5013604;28;20029;-77
2021/05/08 12:13:06;;;;;;;1.13;1.10;;;15.50;46.70;;;;;;5013494;28;20035;-77
2021/05/08 12:15:33;;;;;;;1.30;1.20;;;15.50;48.60;;;;;;5013628;28;20395;-77
2021/05/08 12:18:02;;;;;;;1.20;1.10;;;15.50;43.90;;;;;;5011275;28;20566;-77
2021/05/08 12:20:29;;;;;;;;;;;15.50;45.00;;;;;;5015730;28;20488;-76
2021/05/08 12:23:00;;;;;;;1.40;0.93;;;15.60;45.00;;;;;;5024085;28;19909;-77
2021/05/08 12:25:26;;;;;;;1.17;1.08;;;15.60;46.70;;;;;;5022995;28;20048;-77
2021/05/08 12:28:15;;;;;;;1.80;1.08;;;15.60;45.30;;;;;;5009450;28;20033;-77
2021/05/08 12:30:42;;;;;;;1.30;1.20;;;15.70;47.40;;;;;;5009103;28;20080;-77
2021/05/08 12:33:24;;;;;;;0.93;0.93;;;15.70;43.20;;;;;;5010198;28;20520;-77
2021/05/08 12:35:51;;;;;;;1.00;1.00;;;15.70;47.00;;;;;;5013113;28;20124;-76
2021/05/08 12:38:17;;;;;;;3.35;1.10;;;15.80;46.70;;;;;;5013480;28;20033;-78
2021/05/08 12:40:44;;;;;;;1.73;1.63;;;15.80;48.40;;;;;;5013144;28;20034;-77
2021/05/08 12:43:10;;;;;;;1.98;1.20;;;15.80;46.10;;;;;;5026365;28;20030;-77
2021/05/08 12:45:59;;;;;;;1.80;0.98;;;15.90;48.00;;;;;;5021053;28;20021;-77
2021/05/08 12:48:29;;;;;;;1.35;1.05;;;15.90;45.10;;;;;;5029128;28;20025;-77
2021/05/08 12:50:55;;;;;;;1.63;1.17;;;15.90;42.70;;;;;;5026437;28;20455;-77
2021/05/08 12:53:21;;;;;;;4.70;1.30;;;16.00;46.40;;;;;;5022626;28;20071;-77
2021/05/08 12:56:00;;;;;;;0.95;0.95;;;16.10;46.70;;;;;;5028875;28;20026;-77
2021/05/08 12:58:34;;;;;;;1.05;0.90;;;16.10;43.60;;;;;;5026468;28;20030;-77
2021/05/08 13:01:01;;;;;;;0.98;0.90;;;16.10;44.80;;;;;;5027759;28;20067;-77
2021/05/08 13:03:39;;;;;;;3.13;1.00;;;16.20;45.10;;;;;;5022066;28;20098;-77
2021/05/08 13:06:23;;;;;;;1.10;1.00;;;16.30;45.00;;;;;;5024103;28;20026;-77